createdAt,value
2022-09-21T00:04:00.678Z,-62.82501
2022-09-21T00:09:01.771Z,-63.18225
2022-09-21T00:14:02.752Z,-63.23127
2022-09-21T00:19:04.049Z,-63.46057
2022-09-21T00:24:04.990Z,-63.91394
2022-09-21T00:29:05.885Z,-64.05746
2022-09-21T00:34:06.909Z,-63.88397
2022-09-21T00:39:07.960Z,-63.56627
2022-09-21T00:44:08.979Z,-63.62478
2022-09-21T00:49:09.903Z,-63.78946
2022-09-21T00:54:10.846Z,-64.08023
2022-09-21T00:59:11.793Z,-64.36094
2022-09-21T01:04:12.954Z,-64.29984
2022-09-21T01:09:13.904Z,-64.31323
2022-09-21T01:14:14.860Z,-64.88318
2022-09-21T01:19:15.744Z,-65.23072
2022-09-21T01:24:16.698Z,-65.24949
2022-09-21T01:29:17.607Z,-65.66079
2022-09-21T01:34:18.525Z,-65.92596
2022-09-21T01:39:19.437Z,-66.00444
2022-09-21T01:44:20.369Z,-66.16572
2022-09-21T01:49:21.379Z,-66.14303
2022-09-21T01:54:22.350Z,-66.04944
2022-09-21T01:59:23.256Z,-66.57001
2022-09-21T02:04:24.201Z,-66.54635
2022-09-21T02:09:25.246Z,-66.7286
2022-09-21T02:14:26.299Z,-66.43054
2022-09-21T02:19:27.295Z,-66.71437
2022-09-21T02:24:28.193Z,-66.78958
2022-09-21T02:29:29.091Z,-66.22026
2022-09-21T02:34:30.008Z,-66.05702
2022-09-21T02:39:31.179Z,-65.9037
2022-09-21T02:44:32.266Z,-66.09036
2022-09-21T02:49:33.235Z,-66.16109
2022-09-21T02:54:34.146Z,-66.79773
2022-09-21T02:59:35.069Z,-67.66461
2022-09-21T03:04:35.979Z,-68.25923
2022-09-21T03:09:36.869Z,-68.81723
2022-09-21T03:14:37.763Z,-69.35094
2022-09-21T03:19:38.707Z,-69.2827
2022-09-21T03:24:39.610Z,-69.50557
2022-09-21T03:29:40.506Z,-69.41418
2022-09-21T03:34:41.428Z,-69.22902
2022-09-21T03:39:42.404Z,-69.96207
2022-09-21T03:44:43.351Z,-69.68891
2022-09-21T03:49:44.256Z,-69.39976
2022-09-21T03:54:45.397Z,-69.41546
2022-09-21T03:59:46.318Z,-69.3334
2022-09-21T04:04:47.272Z,-69.65365
2022-09-21T04:09:48.201Z,-70.12275
2022-09-21T04:14:49.099Z,-70.46113
2022-09-21T04:19:50.137Z,-70.64149
2022-09-21T04:24:51.033Z,-70.715
2022-09-21T04:29:51.951Z,-70.53403
2022-09-21T04:34:52.878Z,-70.33579
2022-09-21T04:39:53.843Z,-70.38266
2022-09-21T04:44:54.776Z,-70.22946
2022-09-21T04:49:55.714Z,-70.38342
2022-09-21T04:54:56.750Z,-70.64534
2022-09-21T04:59:57.654Z,-71.16409
2022-09-21T05:04:58.595Z,-71.60676
2022-09-21T05:09:59.630Z,-71.9427
2022-09-21T05:15:00.708Z,-72.29077
2022-09-21T05:20:01.622Z,-72.60089
2022-09-21T05:25:02.600Z,-72.65842
2022-09-21T05:30:03.578Z,-73.30004
2022-09-21T05:35:04.564Z,-73.99785
2022-09-21T05:40:05.579Z,-74.40234
2022-09-21T05:45:06.721Z,-74.46428
2022-09-21T05:50:07.669Z,-74.19349
2022-09-21T05:55:08.583Z,-74.39606
2022-09-21T06:00:09.678Z,-74.56904
2022-09-21T06:05:10.594Z,-74.44845
2022-09-21T06:10:11.508Z,-74.38631
2022-09-21T06:15:12.479Z,-74.98178
2022-09-21T06:20:13.450Z,-75.45171
2022-09-21T06:25:14.636Z,-75.43456
2022-09-21T06:30:15.653Z,-75.81321
2022-09-21T06:35:16.618Z,-75.75116
2022-09-21T06:40:17.655Z,-75.66424
2022-09-21T06:45:18.671Z,-76.02172
2022-09-21T06:50:19.608Z,-76.27872
2022-09-21T06:55:20.540Z,-76.44696
2022-09-21T07:00:21.483Z,-76.45419
2022-09-21T07:05:22.464Z,-76.60394
2022-09-21T07:10:23.508Z,-76.51775
2022-09-21T07:15:24.458Z,-77.47834
2022-09-21T07:20:25.470Z,-77.80591
2022-09-21T07:25:26.421Z,-77.53346
2022-09-21T07:30:27.349Z,-77.78151
2022-09-21T07:35:28.270Z,-77.98731
2022-09-21T07:40:29.253Z,-77.63695
2022-09-21T07:45:30.362Z,-77.43349
2022-09-21T07:50:31.825Z,-77.72144
2022-09-21T07:55:32.807Z,-77.77909
2022-09-21T08:00:33.811Z,-77.67702
2022-09-21T08:05:34.785Z,-77.70583
2022-09-21T08:10:35.754Z,-78.29902
2022-09-21T08:15:49.232Z,-78.54392
2022-09-21T08:20:50.623Z,-78.66361
2022-09-21T08:25:51.720Z,-78.42133
2022-09-21T08:30:52.735Z,-78.70757
2022-09-21T08:35:53.745Z,-78.44794
2022-09-21T08:40:54.702Z,-78.68433
2022-09-21T08:45:55.650Z,-78.7435
2022-09-21T08:50:56.610Z,-78.72426
2022-09-21T08:55:57.641Z,-78.75648
2022-09-21T09:01:01.293Z,-78.93819
2022-09-21T09:06:04.602Z,-79.18323
2022-09-21T09:11:05.521Z,-79.0156
2022-09-21T09:16:06.621Z,-79.32724
2022-09-21T09:21:07.639Z,-79.00598
2022-09-21T09:26:08.641Z,-79.14487
2022-09-21T09:31:09.625Z,-79.06649
2022-09-21T09:36:10.549Z,-78.97931
2022-09-21T09:41:11.530Z,-79.00027
2022-09-21T09:46:13.461Z,-78.72945
2022-09-21T09:51:14.600Z,-79.11009
2022-09-21T09:56:15.530Z,-79.1977
2022-09-21T10:01:16.567Z,-78.75994
2022-09-21T10:06:17.545Z,-78.2622
2022-09-21T10:11:18.479Z,-78.2876
2022-09-21T10:16:19.497Z,-78.43842
2022-09-21T10:21:20.481Z,-78.21659
2022-09-21T10:26:21.491Z,-77.89519
2022-09-21T10:31:22.704Z,-77.76096
2022-09-21T10:36:23.728Z,-77.74024
2022-09-21T10:41:24.813Z,-77.43159
2022-09-21T10:46:25.784Z,-77.11098
2022-09-21T10:51:26.746Z,-76.51926
2022-09-21T10:56:27.659Z,-76.52165
2022-09-21T11:01:28.664Z,-75.92014
2022-09-21T11:06:29.592Z,-75.89374
2022-09-21T11:11:30.564Z,-75.63644
2022-09-21T11:16:31.717Z,-75.3556
2022-09-21T11:21:32.791Z,-74.82852
2022-09-21T11:26:33.839Z,-74.82107
2022-09-21T11:31:34.837Z,-75.07705
2022-09-21T11:36:35.765Z,-74.77003
2022-09-21T11:41:36.668Z,-74.56683
2022-09-21T11:46:37.659Z,-74.71138
2022-09-21T11:51:38.591Z,-74.35868
2022-09-21T11:56:39.517Z,-73.17387
2022-09-21T12:01:40.572Z,-72.99675
2022-09-21T12:06:41.514Z,-72.46147
2022-09-21T12:11:42.428Z,-72.92498
2022-09-21T12:16:43.585Z,-72.88268
2022-09-21T12:21:44.535Z,-72.95265
2022-09-21T12:26:45.440Z,-72.71142
2022-09-21T12:31:46.375Z,-72.33275
2022-09-21T12:36:47.314Z,-70.91888
2022-09-21T12:41:48.222Z,-70.85627
2022-09-21T12:46:51.229Z,-71.16565
2022-09-21T12:51:52.691Z,-71.04341
2022-09-21T12:56:53.633Z,-70.42196
2022-09-21T13:01:57.351Z,-70.41303
2022-09-21T13:06:59.940Z,-70.0467
2022-09-21T13:12:01.005Z,-69.78545
2022-09-21T13:17:02.297Z,-69.13757
2022-09-21T13:22:03.224Z,-69.6171
2022-09-21T13:27:04.146Z,-69.80315
2022-09-21T13:32:05.123Z,-69.59581
2022-09-21T13:37:06.128Z,-69.43066
2022-09-21T13:42:07.108Z,-69.10333
2022-09-21T13:47:08.124Z,-68.77528
2022-09-21T13:52:09.615Z,-68.9154
2022-09-21T13:57:10.632Z,-68.31366
2022-09-21T14:02:11.755Z,-68.31857
2022-09-21T14:07:12.849Z,-67.77032
2022-09-21T14:12:13.828Z,-67.46281
2022-09-21T14:17:14.789Z,-67.25179
2022-09-21T14:22:15.704Z,-67.31817
2022-09-21T14:27:16.651Z,-67.44764
2022-09-21T14:32:17.570Z,-67.33995
2022-09-21T14:37:18.520Z,-67.14465
2022-09-21T14:42:19.552Z,-66.65841
2022-09-21T14:47:20.560Z,-66.0316
2022-09-21T14:57:21.991Z,-66.06994
2022-09-21T15:02:22.882Z,-65.59815
2022-09-21T15:07:23.864Z,-65.26326
2022-09-21T15:12:24.775Z,-64.87968
2022-09-21T15:17:25.839Z,-64.98325
2022-09-21T15:22:26.853Z,-64.71734
2022-09-21T15:27:27.785Z,-64.69942
2022-09-21T15:32:28.746Z,-64.90874
2022-09-21T15:37:29.840Z,-64.92692
2022-09-21T15:42:30.782Z,-64.97292
2022-09-21T15:47:32.381Z,-64.89804
2022-09-21T15:52:33.701Z,-65.43522
2022-09-21T15:57:37.840Z,-64.96052
2022-09-21T16:02:40.571Z,-65.0097
2022-09-21T16:07:42.179Z,-65.30779
2022-09-21T16:12:43.688Z,-65.83298
2022-09-21T16:17:45.018Z,-66.26314
2022-09-21T16:22:52.683Z,-66.72555
2022-09-21T16:27:53.616Z,-66.62602
2022-09-21T16:32:54.561Z,-66.68853
2022-09-21T16:37:55.551Z,-67.03265
2022-09-21T16:42:56.487Z,-67.33329
2022-09-21T16:47:57.491Z,-67.12526
2022-09-21T16:52:58.451Z,-67.28857
2022-09-21T16:57:59.469Z,-67.09418
2022-09-21T17:03:00.537Z,-67.45291
2022-09-21T17:08:01.534Z,-67.89313
2022-09-21T17:13:02.564Z,-67.86518
2022-09-21T17:18:03.620Z,-68.23665
2022-09-21T17:23:04.644Z,-68.22302
2022-09-21T17:28:05.575Z,-68.47562
2022-09-21T17:33:06.619Z,-68.51909
2022-09-21T17:43:08.055Z,-68.94562
2022-09-21T17:48:09.017Z,-68.94928
2022-09-21T17:53:09.952Z,-69.17116
2022-09-21T17:58:10.972Z,-69.14059
2022-09-21T18:03:12.095Z,-69.67004
2022-09-21T18:08:13.102Z,-69.77967
2022-09-21T18:13:14.057Z,-69.94847
2022-09-21T18:18:15.336Z,-70.4383
2022-09-21T18:23:16.302Z,-70.59246
2022-09-21T18:28:17.263Z,-70.68291
2022-09-21T18:33:18.184Z,-70.86615
2022-09-21T18:38:19.117Z,-71.21513
2022-09-21T18:43:20.056Z,-71.54699
2022-09-21T18:48:20.996Z,-71.81612
2022-09-21T18:53:21.943Z,-72.1573
2022-09-21T18:58:22.875Z,-72.12091
2022-09-21T19:03:23.934Z,-72.06739
2022-09-21T19:08:25.129Z,-72.35786
2022-09-21T19:13:26.124Z,-72.32325
2022-09-21T19:18:27.104Z,-72.52948
2022-09-21T19:23:28.185Z,-72.22039
2022-09-21T19:28:29.099Z,-72.23445
2022-09-21T19:33:48.862Z,-72.64739
2022-09-21T19:38:50.868Z,-72.98759
2022-09-21T19:43:51.802Z,-73.14716
2022-09-21T19:48:52.737Z,-72.72957
2022-09-21T19:53:53.682Z,-73.15395
2022-09-21T19:58:54.690Z,-73.31291
2022-09-21T20:03:55.602Z,-73.60103
2022-09-21T20:08:56.606Z,-73.58239
2022-09-21T20:13:57.589Z,-73.77466
2022-09-21T20:18:58.538Z,-74.04951
2022-09-21T20:23:59.465Z,-73.59498
2022-09-21T20:29:00.479Z,-73.35771
2022-09-21T20:34:01.432Z,-73.28766
2022-09-21T20:39:02.381Z,-73.5308
2022-09-21T20:44:03.276Z,-73.91758
2022-09-21T20:49:04.226Z,-74.08199
2022-09-21T20:54:05.380Z,-73.75488
2022-09-21T20:59:06.697Z,-73.9223
2022-09-21T21:04:07.649Z,-73.81901
2022-09-21T21:09:08.669Z,-74.21721
2022-09-21T21:14:09.649Z,-74.27615
2022-09-21T21:19:10.686Z,-74.51052
2022-09-21T21:24:11.843Z,-75.02411
2022-09-21T21:29:12.803Z,-75.05277
2022-09-21T21:34:13.772Z,-74.72247
2022-09-21T21:39:14.862Z,-74.43274
2022-09-21T21:44:15.921Z,-74.03454
2022-09-21T21:49:16.902Z,-73.95013
2022-09-21T21:54:17.934Z,-73.65094
2022-09-21T21:59:19.036Z,-73.75307
2022-09-21T22:04:21.641Z,-73.28129
2022-09-21T22:09:25.468Z,-73.24446
2022-09-21T22:14:26.412Z,-73.2857
2022-09-21T22:19:27.418Z,-73.06621
2022-09-21T22:24:28.644Z,-73.27496
2022-09-21T22:29:29.617Z,-72.99156
2022-09-21T22:34:30.543Z,-73.14038
2022-09-21T22:39:31.499Z,-72.86049
2022-09-21T22:44:32.753Z,-73.00239
2022-09-21T22:49:33.720Z,-72.86388
2022-09-21T22:54:34.664Z,-73.1665
2022-09-21T22:59:35.598Z,-73.29924
2022-09-21T23:04:36.539Z,-73.25011
2022-09-21T23:09:37.458Z,-73.30034
2022-09-21T23:14:38.403Z,-73.11205
2022-09-21T23:19:39.404Z,-73.19506
2022-09-21T23:24:40.318Z,-73.23412
2022-09-21T23:29:41.260Z,-73.46426
2022-09-21T23:34:42.205Z,-73.25712
2022-09-21T23:39:43.118Z,-73.33841
2022-09-21T23:44:44.188Z,-73.36312
2022-09-21T23:49:45.145Z,-73.07334
2022-09-21T23:54:46.435Z,-73.0613
2022-09-21T23:59:47.398Z,-73.04484
